createdAt,value
2019-03-29T00:00:29.125Z,20.00
2019-03-29T00:02:57.816Z,20.72
2019-03-29T00:05:26.567Z,20.32
2019-03-29T00:07:55.102Z,20.68
2019-03-29T00:10:23.722Z,20.40
2019-03-29T00:12:53.331Z,22.37
2019-03-29T00:15:21.784Z,23.62
2019-03-29T00:17:50.234Z,22.90
2019-03-29T00:20:19.418Z,23.02
2019-03-29T00:22:48.029Z,20.27
2019-03-29T00:25:16.668Z,20.85
2019-03-29T00:27:45.639Z,15.38
2019-03-29T00:30:14.272Z,18.75
2019-03-29T00:32:42.806Z,19.40
2019-03-29T00:35:11.142Z,20.25
2019-03-29T00:37:52.966Z,23.85
2019-03-29T00:40:11.441Z,24.47
2019-03-29T00:42:43.146Z,29.95
2019-03-29T00:45:13.847Z,27.98
2019-03-29T00:47:42.190Z,31.05
2019-03-29T00:50:10.691Z,31.70
2019-03-29T00:52:40.436Z,33.75
2019-03-29T00:55:09.346Z,30.00
2019-03-29T00:57:37.562Z,26.17
2019-03-29T01:00:07.013Z,27.80
2019-03-29T01:02:36.009Z,27.35
2019-03-29T01:05:04.743Z,29.32
2019-03-29T01:07:33.408Z,25.82
2019-03-29T01:10:01.706Z,25.20
2019-03-29T01:12:29.945Z,24.23
2019-03-29T01:14:58.313Z,23.40
2019-03-29T01:17:27.355Z,21.68
2019-03-29T01:19:56.134Z,21.68
2019-03-29T01:22:25.043Z,19.73
2019-03-29T01:24:55.000Z,17.30
2019-03-29T01:27:23.236Z,17.45
2019-03-29T01:29:51.539Z,16.82
2019-03-29T01:32:20.620Z,15.60
2019-03-29T01:34:50.133Z,14.93
2019-03-29T01:37:19.825Z,13.30
2019-03-29T01:39:49.418Z,13.50
2019-03-29T01:42:18.320Z,13.20
2019-03-29T01:44:47.690Z,12.50
2019-03-29T01:47:16.364Z,12.68
2019-03-29T01:49:44.759Z,13.08
2019-03-29T01:52:13.494Z,12.10
2019-03-29T01:54:46.225Z,13.13
2019-03-29T01:57:14.480Z,13.72
2019-03-29T01:59:42.983Z,14.60
2019-03-29T02:02:11.765Z,14.90
2019-03-29T02:04:40.069Z,14.30
2019-03-29T02:07:08.780Z,13.90
2019-03-29T02:09:42.673Z,14.15
2019-03-29T02:12:11.023Z,14.75
2019-03-29T02:14:42.656Z,15.90
2019-03-29T02:17:10.933Z,16.17
2019-03-29T02:19:39.264Z,16.12
2019-03-29T02:22:09.027Z,16.57
2019-03-29T02:24:37.753Z,16.93
2019-03-29T02:27:06.478Z,15.40
2019-03-29T02:29:34.862Z,15.38
2019-03-29T02:32:03.610Z,15.32
2019-03-29T02:34:32.142Z,15.38
2019-03-29T02:37:02.097Z,14.30
2019-03-29T02:39:31.907Z,15.08
2019-03-29T02:42:00.230Z,14.90
2019-03-29T02:44:28.508Z,15.32
2019-03-29T02:46:57.768Z,14.87
2019-03-29T02:49:30.524Z,13.38
2019-03-29T02:51:59.073Z,14.13
2019-03-29T02:54:32.750Z,13.55
2019-03-29T02:57:01.325Z,13.05
2019-03-29T02:59:31.694Z,12.50
2019-03-29T03:02:00.350Z,10.68
2019-03-29T03:04:30.226Z,11.83
2019-03-29T03:06:58.505Z,12.05
2019-03-29T03:09:26.908Z,11.75
2019-03-29T03:11:55.603Z,10.05
2019-03-29T03:14:24.158Z,10.48
2019-03-29T03:16:52.414Z,10.50
2019-03-29T03:19:23.169Z,12.40
2019-03-29T03:21:51.494Z,11.43
2019-03-29T03:24:20.233Z,11.43
2019-03-29T03:26:48.445Z,12.50
2019-03-29T03:29:17.722Z,11.80
2019-03-29T03:31:46.314Z,11.50
2019-03-29T03:34:16.643Z,12.75
2019-03-29T03:36:45.537Z,12.23
2019-03-29T03:39:30.481Z,12.90
2019-03-29T03:41:46.269Z,12.60
2019-03-29T03:44:14.610Z,12.45
2019-03-29T03:46:43.190Z,12.30
2019-03-29T03:49:11.606Z,12.93
2019-03-29T03:51:40.431Z,13.08
2019-03-29T03:54:10.232Z,14.30
2019-03-29T03:56:40.645Z,13.15
2019-03-29T03:59:14.942Z,12.50
2019-03-29T04:01:44.603Z,12.88
2019-03-29T04:04:13.506Z,14.15
2019-03-29T04:06:42.056Z,12.90
2019-03-29T04:09:10.810Z,13.80
2019-03-29T04:11:39.030Z,12.43
2019-03-29T04:14:20.007Z,13.20
2019-03-29T04:16:48.238Z,14.40
2019-03-29T04:19:18.778Z,13.65
2019-03-29T04:21:48.215Z,13.28
2019-03-29T04:24:18.185Z,13.78
2019-03-29T04:26:46.833Z,16.02
2019-03-29T04:29:16.298Z,15.13
2019-03-29T04:31:44.639Z,14.53
2019-03-29T04:34:13.287Z,13.10
2019-03-29T04:36:41.593Z,13.38
2019-03-29T04:39:11.082Z,13.70
2019-03-29T04:41:39.674Z,14.05
2019-03-29T04:44:08.137Z,13.45
2019-03-29T04:46:36.685Z,13.48
2019-03-29T04:49:07.047Z,14.30
2019-03-29T04:51:37.339Z,15.18
2019-03-29T04:54:08.909Z,14.18
2019-03-29T04:56:37.183Z,14.65
2019-03-29T04:59:05.521Z,15.18
2019-03-29T05:01:38.241Z,14.80
2019-03-29T05:04:13.340Z,15.83
2019-03-29T05:06:41.752Z,15.15
2019-03-29T05:09:10.522Z,15.60
2019-03-29T05:11:39.148Z,17.02
2019-03-29T05:14:07.425Z,17.85
2019-03-29T05:16:35.669Z,19.77
2019-03-29T05:19:04.449Z,20.02
2019-03-29T05:21:35.074Z,22.20
2019-03-29T05:24:03.507Z,22.25
2019-03-29T05:26:32.246Z,19.82
2019-03-29T05:29:01.754Z,21.97
2019-03-29T05:31:30.310Z,21.55
2019-03-29T05:33:58.880Z,21.62
2019-03-29T05:36:27.142Z,21.82
2019-03-29T05:38:55.549Z,22.67
2019-03-29T05:41:23.829Z,21.60
2019-03-29T05:43:52.649Z,21.85
2019-03-29T05:46:22.152Z,22.65
2019-03-29T05:48:50.492Z,22.77
2019-03-29T05:51:18.844Z,21.62
2019-03-29T05:53:47.621Z,24.18
2019-03-29T05:56:16.225Z,22.95
2019-03-29T05:58:44.583Z,22.70
2019-03-29T06:01:12.824Z,21.20
2019-03-29T06:03:41.122Z,21.27
2019-03-29T06:06:09.730Z,21.68
2019-03-29T06:08:39.736Z,20.70
2019-03-29T06:11:09.825Z,19.98
2019-03-29T06:13:38.079Z,19.75
2019-03-29T06:16:09.864Z,20.30
2019-03-29T06:18:38.179Z,21.80
2019-03-29T06:21:06.764Z,21.27
2019-03-29T06:23:35.139Z,21.25
2019-03-29T06:26:03.986Z,21.80
2019-03-29T06:28:32.326Z,22.87
2019-03-29T06:31:00.777Z,22.37
2019-03-29T06:33:29.467Z,21.45
2019-03-29T06:35:59.555Z,20.60
2019-03-29T06:38:31.468Z,19.65
2019-03-29T06:41:03.189Z,22.07
2019-03-29T06:43:30.331Z,18.73
2019-03-29T06:46:01.875Z,17.05
2019-03-29T06:48:31.794Z,19.40
2019-03-29T06:51:00.112Z,19.42
2019-03-29T06:53:28.707Z,17.45
2019-03-29T06:55:59.451Z,15.28
2019-03-29T06:58:28.533Z,15.75
2019-03-29T07:00:57.465Z,16.45
2019-03-29T07:03:25.898Z,16.17
2019-03-29T07:05:54.242Z,15.03
2019-03-29T07:08:22.986Z,16.90
2019-03-29T07:10:51.597Z,22.20
2019-03-29T07:13:19.871Z,19.15
2019-03-29T07:15:48.535Z,18.92
2019-03-29T07:18:16.900Z,20.72
2019-03-29T07:20:45.528Z,22.00
2019-03-29T07:23:13.841Z,23.67
2019-03-29T07:25:42.486Z,22.02
2019-03-29T07:28:12.843Z,28.02
2019-03-29T07:30:41.610Z,22.60
2019-03-29T07:33:09.871Z,19.95
2019-03-29T07:35:38.512Z,22.00
2019-03-29T07:38:07.186Z,20.20
2019-03-29T07:40:35.796Z,22.60
2019-03-29T07:43:04.263Z,22.37
2019-03-29T07:45:32.844Z,21.17
2019-03-29T07:48:01.539Z,21.60
2019-03-29T07:50:30.115Z,22.60
2019-03-29T07:52:58.443Z,22.43
2019-03-29T07:55:26.732Z,19.83
2019-03-29T07:57:55.052Z,18.27
2019-03-29T08:00:23.711Z,17.50
2019-03-29T08:02:51.941Z,16.03
2019-03-29T08:05:20.216Z,16.93
2019-03-29T08:07:48.853Z,17.10
2019-03-29T08:10:25.806Z,13.10
2019-03-29T08:12:49.240Z,13.07
2019-03-29T08:15:17.890Z,10.77
2019-03-29T08:17:46.111Z,12.10
2019-03-29T08:20:38.209Z,10.50
2019-03-29T08:22:46.775Z,11.40
2019-03-29T08:25:15.019Z,9.90
2019-03-29T08:27:44.551Z,12.10
2019-03-29T08:30:13.255Z,10.67
2019-03-29T08:32:42.033Z,14.43
2019-03-29T08:35:10.728Z,9.73
2019-03-29T08:37:38.967Z,9.00
2019-03-29T08:40:07.836Z,8.57
2019-03-29T08:42:36.280Z,12.40
2019-03-29T08:45:05.944Z,9.40
2019-03-29T08:47:34.543Z,9.40
2019-03-29T08:50:02.935Z,9.40
2019-03-29T08:52:31.761Z,9.83
2019-03-29T08:55:00.286Z,9.80
2019-03-29T08:57:29.204Z,10.07
2019-03-29T08:59:57.480Z,9.33
2019-03-29T09:02:26.342Z,9.80
2019-03-29T09:04:55.301Z,9.93
2019-03-29T09:07:23.979Z,9.97
2019-03-29T09:09:52.601Z,11.13
2019-03-29T09:12:21.251Z,9.87
2019-03-29T09:14:49.587Z,9.63
2019-03-29T09:17:21.746Z,10.43
2019-03-29T09:19:50.269Z,11.20
2019-03-29T09:22:18.912Z,13.00
2019-03-29T09:24:50.909Z,11.17
2019-03-29T09:27:20.018Z,11.43
2019-03-29T09:29:50.267Z,10.50
2019-03-29T09:32:18.576Z,12.10
2019-03-29T09:34:50.530Z,11.23
2019-03-29T09:37:18.891Z,12.63
2019-03-29T09:39:50.201Z,10.67
2019-03-29T09:42:29.145Z,10.97
2019-03-29T09:44:49.762Z,10.40
2019-03-29T09:47:18.408Z,8.87
2019-03-29T09:49:50.796Z,8.70
2019-03-29T09:52:19.056Z,7.80
2019-03-29T09:54:47.788Z,8.63
2019-03-29T09:57:16.095Z,8.73
2019-03-29T09:59:44.702Z,8.50
2019-03-29T10:02:13.132Z,7.57
2019-03-29T10:04:42.486Z,8.00
2019-03-29T10:07:11.268Z,8.10
2019-03-29T10:09:39.504Z,7.47
2019-03-29T10:12:08.136Z,9.13
2019-03-29T10:14:40.133Z,8.00
2019-03-29T10:17:08.778Z,7.57
2019-03-29T10:19:37.600Z,7.67
2019-03-29T10:22:05.836Z,7.87
2019-03-29T10:24:36.953Z,9.53
2019-03-29T10:27:05.218Z,7.80
2019-03-29T10:29:33.858Z,8.83
2019-03-29T10:32:05.474Z,8.17
2019-03-29T10:34:37.422Z,6.87
2019-03-29T10:37:05.052Z,6.60
2019-03-29T10:39:35.607Z,6.90
2019-03-29T10:42:04.124Z,7.93
2019-03-29T10:44:32.571Z,6.87
2019-03-29T10:47:01.186Z,7.97
2019-03-29T10:49:31.533Z,7.90
2019-03-29T10:51:59.843Z,6.97
2019-03-29T10:54:28.494Z,9.03
2019-03-29T10:56:56.808Z,8.40
2019-03-29T10:59:27.718Z,7.70
2019-03-29T11:01:57.100Z,7.40
2019-03-29T11:04:25.768Z,7.77
2019-03-29T11:06:54.007Z,7.93
2019-03-29T11:09:29.242Z,7.93
2019-03-29T11:11:57.892Z,7.63
2019-03-29T11:14:26.185Z,8.20
2019-03-29T11:16:55.794Z,7.60
2019-03-29T11:19:24.489Z,6.83
2019-03-29T11:21:52.698Z,7.00
2019-03-29T11:24:21.347Z,7.60
2019-03-29T11:26:49.974Z,7.97
2019-03-29T11:29:18.733Z,7.50
2019-03-29T11:31:47.044Z,6.47
2019-03-29T11:34:15.805Z,9.10
2019-03-29T11:36:44.343Z,10.07
2019-03-29T11:39:16.371Z,9.00
2019-03-29T11:41:44.953Z,10.27
2019-03-29T11:44:13.271Z,6.70
2019-03-29T11:46:41.499Z,6.60
2019-03-29T11:49:16.217Z,6.50
2019-03-29T11:51:44.669Z,9.50
2019-03-29T11:54:13.092Z,8.67
2019-03-29T11:56:41.691Z,7.50
2019-03-29T11:59:10.915Z,8.83
2019-03-29T12:01:39.211Z,6.73
2019-03-29T12:04:07.676Z,7.00
2019-03-29T12:06:35.994Z,7.47
2019-03-29T12:09:05.743Z,6.03
2019-03-29T12:11:33.974Z,10.20
2019-03-29T12:14:05.029Z,6.17
2019-03-29T12:16:33.370Z,6.17
2019-03-29T12:19:01.631Z,7.07
2019-03-29T12:21:30.128Z,5.83
2019-03-29T12:23:58.327Z,9.37
2019-03-29T12:26:26.690Z,7.80
2019-03-29T12:28:55.379Z,9.40
2019-03-29T12:31:23.663Z,5.77
2019-03-29T12:33:52.259Z,7.80
2019-03-29T12:36:20.680Z,7.13
2019-03-29T12:38:49.246Z,11.23
2019-03-29T12:41:17.555Z,6.60
2019-03-29T12:43:55.552Z,6.30
2019-03-29T12:46:15.943Z,8.13
2019-03-29T12:48:44.444Z,6.33
2019-03-29T12:51:13.069Z,6.20
2019-03-29T12:53:41.508Z,6.30
2019-03-29T12:56:10.098Z,5.83
2019-03-29T12:58:38.367Z,8.73
2019-03-29T13:01:07.474Z,7.17
2019-03-29T13:03:35.732Z,8.40
2019-03-29T13:06:04.132Z,9.10
2019-03-29T13:08:33.161Z,7.90
2019-03-29T13:11:01.895Z,9.43
2019-03-29T13:13:31.309Z,8.53
2019-03-29T13:15:59.561Z,7.20
2019-03-29T13:18:27.837Z,8.40
2019-03-29T13:20:56.469Z,6.87
2019-03-29T13:23:26.045Z,6.87
2019-03-29T13:25:54.703Z,6.23
2019-03-29T13:28:23.097Z,7.10
2019-03-29T13:30:52.307Z,7.45
2019-03-29T13:33:21.031Z,7.15
2019-03-29T13:35:49.396Z,9.73
2019-03-29T13:38:20.415Z,11.93
2019-03-29T13:40:48.482Z,7.95
2019-03-29T13:43:17.098Z,6.97
2019-03-29T13:45:45.476Z,10.95
2019-03-29T13:48:14.087Z,8.98
2019-03-29T13:50:42.431Z,7.03
2019-03-29T13:53:10.701Z,7.85
2019-03-29T13:55:39.008Z,8.15
2019-03-29T13:58:07.605Z,8.43
2019-03-29T14:00:36.352Z,7.05
2019-03-29T14:03:04.972Z,9.03
2019-03-29T14:05:33.273Z,8.35
2019-03-29T14:08:01.516Z,7.95
2019-03-29T14:10:30.346Z,7.45
2019-03-29T14:12:58.897Z,9.00
2019-03-29T14:15:27.147Z,7.72
2019-03-29T14:17:55.454Z,7.15
2019-03-29T14:20:31.346Z,9.30
2019-03-29T14:22:59.889Z,8.83
2019-03-29T14:25:28.445Z,8.03
2019-03-29T14:27:56.685Z,9.05
2019-03-29T14:30:24.935Z,8.30
2019-03-29T14:32:54.579Z,9.80
2019-03-29T14:35:23.212Z,9.05
2019-03-29T14:37:52.957Z,8.65
2019-03-29T14:40:21.508Z,10.03
2019-03-29T14:42:49.783Z,9.23
2019-03-29T14:45:17.998Z,8.90
2019-03-29T14:47:46.230Z,8.90
2019-03-29T14:50:16.486Z,8.63
2019-03-29T14:52:44.974Z,10.55
2019-03-29T14:55:13.318Z,11.45
2019-03-29T14:57:41.833Z,10.82
2019-03-29T15:00:12.061Z,9.33
2019-03-29T15:02:40.488Z,12.47
2019-03-29T15:05:09.744Z,10.30
2019-03-29T15:07:40.764Z,10.48
2019-03-29T15:10:19.346Z,8.23
2019-03-29T15:12:47.568Z,9.60
2019-03-29T15:15:16.191Z,9.60
2019-03-29T15:17:45.136Z,9.95
2019-03-29T15:20:15.974Z,8.08
2019-03-29T15:22:45.623Z,10.15
2019-03-29T15:25:13.861Z,9.05
2019-03-29T15:27:42.509Z,9.45
2019-03-29T15:30:12.040Z,10.75
2019-03-29T15:32:43.503Z,9.35
2019-03-29T15:35:12.350Z,11.22
2019-03-29T15:37:40.904Z,8.98
2019-03-29T15:40:10.443Z,7.80
2019-03-29T15:42:39.216Z,7.83
2019-03-29T15:45:19.574Z,10.00
2019-03-29T15:47:40.511Z,7.95
2019-03-29T15:50:09.425Z,8.90
2019-03-29T15:52:39.088Z,10.45
2019-03-29T15:55:11.389Z,10.58
2019-03-29T15:57:39.759Z,8.90
2019-03-29T16:00:09.235Z,9.40
2019-03-29T16:02:37.615Z,10.18
2019-03-29T16:05:06.332Z,9.05
2019-03-29T16:07:35.161Z,8.63
2019-03-29T16:10:04.755Z,9.55
2019-03-29T16:12:33.116Z,11.00
2019-03-29T16:15:02.006Z,8.95
2019-03-29T16:17:30.490Z,9.20
2019-03-29T16:19:58.829Z,8.33
2019-03-29T16:22:27.411Z,12.15
2019-03-29T16:24:57.277Z,9.93
2019-03-29T16:27:25.634Z,10.23
2019-03-29T16:29:53.991Z,8.83
2019-03-29T16:32:22.568Z,8.80
2019-03-29T16:34:51.004Z,8.68
2019-03-29T16:37:22.888Z,7.95
2019-03-29T16:39:51.537Z,8.03
2019-03-29T16:42:23.490Z,8.20
2019-03-29T16:44:52.135Z,8.48
2019-03-29T16:47:21.826Z,8.78
2019-03-29T16:49:50.843Z,8.68
2019-03-29T16:52:19.428Z,8.58
2019-03-29T16:54:48.985Z,8.78
2019-03-29T16:57:17.617Z,9.08
2019-03-29T16:59:47.200Z,8.18
2019-03-29T17:02:15.627Z,7.83
2019-03-29T17:04:44.157Z,8.95
2019-03-29T17:07:12.824Z,9.80
2019-03-29T17:09:41.460Z,8.75
2019-03-29T17:12:13.889Z,9.65
2019-03-29T17:14:42.112Z,11.38
2019-03-29T17:17:11.196Z,10.32
2019-03-29T17:19:39.520Z,11.70
2019-03-29T17:22:10.122Z,12.45
2019-03-29T17:24:38.572Z,11.93
2019-03-29T17:27:08.857Z,10.58
2019-03-29T17:29:40.027Z,9.73
2019-03-29T17:32:09.719Z,10.93
2019-03-29T17:34:38.209Z,10.35
2019-03-29T17:37:07.034Z,10.53
2019-03-29T17:39:35.527Z,10.45
2019-03-29T17:42:03.855Z,11.80
2019-03-29T17:44:32.486Z,11.88
2019-03-29T17:47:00.792Z,12.50
2019-03-29T17:49:29.071Z,10.85
2019-03-29T17:51:57.336Z,11.65
2019-03-29T17:54:26.622Z,11.97
2019-03-29T17:56:55.096Z,11.10
2019-03-29T17:59:33.550Z,11.88
2019-03-29T18:02:09.293Z,12.55
2019-03-29T18:04:33.503Z,14.03
2019-03-29T18:07:01.758Z,14.40
2019-03-29T18:09:29.987Z,14.85
2019-03-29T18:11:58.508Z,13.83
2019-03-29T18:14:26.974Z,14.73
2019-03-29T18:16:56.041Z,15.83
2019-03-29T18:19:24.354Z,14.93
2019-03-29T18:21:53.163Z,15.98
2019-03-29T18:24:22.428Z,15.88
2019-03-29T18:26:50.849Z,15.38
2019-03-29T18:29:19.702Z,15.53
2019-03-29T18:31:48.790Z,16.05
2019-03-29T18:34:17.111Z,15.58
2019-03-29T18:36:47.455Z,15.03
2019-03-29T18:39:18.016Z,17.27
2019-03-29T18:41:46.612Z,16.80
2019-03-29T18:44:16.172Z,14.58
2019-03-29T18:46:45.186Z,16.77
2019-03-29T18:49:13.946Z,16.07
2019-03-29T18:51:42.598Z,17.62
2019-03-29T18:54:12.042Z,16.65
2019-03-29T18:56:40.404Z,17.42
2019-03-29T18:59:08.702Z,17.10
2019-03-29T19:01:39.959Z,15.88
2019-03-29T19:04:10.176Z,14.98
2019-03-29T19:06:38.807Z,16.35
2019-03-29T19:09:07.564Z,16.12
2019-03-29T19:11:36.887Z,15.08
2019-03-29T19:14:05.395Z,15.50
2019-03-29T19:16:33.618Z,14.25
2019-03-29T19:19:10.389Z,15.20
2019-03-29T19:21:38.056Z,33.25
2019-03-29T19:24:06.543Z,59.45
2019-03-29T19:26:34.942Z,26.00
2019-03-29T19:29:03.279Z,20.32
2019-03-29T19:31:33.108Z,19.00
2019-03-29T19:34:01.785Z,20.57
2019-03-29T19:36:30.436Z,20.23
2019-03-29T19:39:03.656Z,20.00
2019-03-29T19:41:33.658Z,19.15
2019-03-29T19:44:06.722Z,20.05
2019-03-29T19:46:35.059Z,20.43
2019-03-29T19:49:07.796Z,23.42
2019-03-29T19:51:36.654Z,20.20
2019-03-29T19:54:07.636Z,20.55
2019-03-29T19:56:35.479Z,21.15
2019-03-29T19:59:04.281Z,22.07
2019-03-29T20:01:33.235Z,24.12
2019-03-29T20:04:01.927Z,23.55
2019-03-29T20:06:31.945Z,22.75
2019-03-29T20:09:01.176Z,25.20
2019-03-29T20:11:31.726Z,28.57
2019-03-29T20:14:00.410Z,25.97
2019-03-29T20:16:33.688Z,22.45
2019-03-29T20:19:02.680Z,20.27
2019-03-29T20:21:31.321Z,20.82
2019-03-29T20:24:00.892Z,20.05
2019-03-29T20:26:29.526Z,19.32
2019-03-29T20:28:57.856Z,21.42
2019-03-29T20:31:26.172Z,19.42
2019-03-29T20:33:54.450Z,20.52
2019-03-29T20:36:23.413Z,19.75
2019-03-29T20:38:53.292Z,18.73
2019-03-29T20:41:22.036Z,19.52
2019-03-29T20:43:51.555Z,18.45
2019-03-29T20:46:20.236Z,19.45
2019-03-29T20:48:48.517Z,19.95
2019-03-29T20:51:17.132Z,19.75
2019-03-29T20:53:45.548Z,17.80
2019-03-29T20:56:13.829Z,20.08
2019-03-29T20:58:42.431Z,22.40
2019-03-29T21:01:12.326Z,21.73
2019-03-29T21:03:40.994Z,21.27
2019-03-29T21:06:09.394Z,22.25
2019-03-29T21:08:38.387Z,24.05
2019-03-29T21:11:06.722Z,23.07
2019-03-29T21:13:35.384Z,21.23
2019-03-29T21:16:03.997Z,20.32
2019-03-29T21:18:32.898Z,19.80
2019-03-29T21:21:01.452Z,20.90
2019-03-29T21:23:30.501Z,19.00
2019-03-29T21:25:59.853Z,18.77
2019-03-29T21:28:28.283Z,19.55
2019-03-29T21:30:57.049Z,19.07
2019-03-29T21:33:26.887Z,17.57
2019-03-29T21:35:56.398Z,19.90
2019-03-29T21:38:25.048Z,20.45
2019-03-29T21:40:53.382Z,22.05
2019-03-29T21:43:22.446Z,21.27
2019-03-29T21:45:51.138Z,21.62
2019-03-29T21:48:28.488Z,22.85
2019-03-29T21:50:57.088Z,23.18
2019-03-29T21:53:28.213Z,21.70
2019-03-29T21:55:58.640Z,21.95
2019-03-29T21:58:27.309Z,26.60
2019-03-29T22:00:55.999Z,28.40
2019-03-29T22:03:28.010Z,27.62
2019-03-29T22:05:56.511Z,30.02
2019-03-29T22:08:24.887Z,33.35
2019-03-29T22:10:56.804Z,32.75
2019-03-29T22:13:28.254Z,31.77
2019-03-29T22:16:03.606Z,30.23
2019-03-29T22:18:37.810Z,28.27
2019-03-29T22:21:02.414Z,26.68
2019-03-29T22:23:30.876Z,26.20
2019-03-29T22:25:59.220Z,24.87
2019-03-29T22:28:27.894Z,24.75
2019-03-29T22:31:25.266Z,25.23
2019-03-29T22:34:02.550Z,23.27
2019-03-29T22:36:32.806Z,23.98
2019-03-29T22:39:01.186Z,25.02
2019-03-29T22:41:31.412Z,24.95
2019-03-29T22:44:00.263Z,22.93
2019-03-29T22:46:29.608Z,25.88
2019-03-29T22:48:58.425Z,24.10
2019-03-29T22:51:26.985Z,24.18
2019-03-29T22:53:56.540Z,23.90
2019-03-29T22:56:25.994Z,24.60
2019-03-29T22:58:59.094Z,26.02
2019-03-29T23:01:33.928Z,26.48
2019-03-29T23:04:03.715Z,25.90
2019-03-29T23:06:32.736Z,25.50
2019-03-29T23:09:00.978Z,25.30
2019-03-29T23:11:30.144Z,23.90
2019-03-29T23:14:02.165Z,26.10
2019-03-29T23:16:30.585Z,23.87
2019-03-29T23:19:06.338Z,23.90
2019-03-29T23:21:30.901Z,23.38
2019-03-29T23:23:59.560Z,23.07
2019-03-29T23:26:29.200Z,24.45
2019-03-29T23:28:57.841Z,22.77
2019-03-29T23:31:28.489Z,24.80
2019-03-29T23:34:00.473Z,22.60
2019-03-29T23:36:29.115Z,23.10
2019-03-29T23:38:57.351Z,21.77
2019-03-29T23:41:26.592Z,25.60
2019-03-29T23:43:55.227Z,23.00
2019-03-29T23:46:23.513Z,22.20
2019-03-29T23:48:53.337Z,23.60
2019-03-29T23:51:22.583Z,23.77
2019-03-29T23:53:51.424Z,24.85
2019-03-29T23:56:19.881Z,23.77
2019-03-29T23:58:48.444Z,23.30
